Colorado Springs, CO (80922)

1:03 AM MST on December 25, 2014 (GMT -0700)
Ridgeview @ Stetson Hills | Change Station
CLOSE
Current Station
Personal Weather Station
Location: Colorado Springs, CO
Elevation: 6685 ft
Nearby Weather Stations

Elev 6685 ft 38.91 °N, 104.70 °W | Updated 4 seconds ago

Partly Cloudy
Partly Cloudy
41.5 °F
Feels Like 38 °F
N
4.9
Wind Variable Wind from WNW
Gusts 5.0 mph

Today
High -- | Low -- °F
--% Chance of Precip.
Yesterday
High -- | Low -- °F
Precip. -- in
7:15 AM 4:42 PM
Waxing Crescent, 14% visible
Pressure 29.50 in
Visibility 10.0 miles
Clouds Few 23000 ft
Windchill 38 °F
Dew Point 8 °F
Humidity 25%
Rainfall 0.00 in
Snow Depth Not available.
UV 0 out of 12
Pollen .10 out of 12
Air Quality Not available.
Flu Activity Not available.
METAR KCOS 250754Z 02007KT 10SM FEW230 01/M11 A2949 RMK AO2 SLP988 T00111111

More Conditions Fewer Conditions

Pressure 29.50 in
Visibility 10.0 miles
Clouds Few 23000 ft
Windchill 38 °F
Dew Point 8 °F
Humidity 25%
Rainfall 0.00 in
Snow Depth Not available.
UV 0 out of 12
Pollen .10 out of 12
Air Quality Not available.
Flu Activity Not available.
METAR KCOS 250754Z 02007KT 10SM FEW230 01/M11 A2949 RMK AO2 SLP988 T00111111

More Conditions Fewer Conditions

10-Day Weather Forecast

Almanac

Astronomy

Dec. 25, 2014 Rise Set
Actual Time
Civil Twilight
Nautical Twilight
Astronomical Twilight
Moon
Length of Visible Light
Length of Day
Tomorrow will be .
, % of the Moon is Illuminated

Today's Extremes

State Highs State Lows

Community

WunderPhotos

Upload Photos

1,780,250 photos uploaded!

WunderBlogs® & News

Nearby

Air Quality

  Air Quality AQ Index Pollutant
Not available.

Snow Depth

Station Depth Elevation

Earthquake Activity

City Distance Mag. Time & Date
Minimum magnitude displayed is 2.5.

Coastal Water Temperatures

Place Temperature

Nearby Weather Stations